Airfield :
LOGIN :

Register | Disclaimer

   EN    FR    IT 

 










Legend :    VFR   Marginal VFR   IFR   Intensive IFR   Very Intensive IFR
Visi :
Ceiling :
>= 8 km
>= 3000ft
5 to 8 km
1000 to 3000 ft
1500m to 5 km
500 to 1000 ft
800 to 1500m
200 to 500 ft
< 800m
< 200 ft
Symbols :   Thunderstorms  Fog  Heavy snow  Heavy precipitations  Wind > 20 kt
SIGMETs :     Misc.  Thunderstorms  Icing  Turbulence  Mountain Waves  Volcanic Ashes







- Airport Elevation : 526 ft
- IATA code : LTN
- Download approach charts


EGGW - London Luton

CURRENT METAR :
  • 210720Z AUTO 14007KT 4500 BR OVC004 02/02 Q1008

EXPIRED METARs :
  • 210650Z AUTO 13007KT 3100 BR BKN003 OVC010 02/02 Q1007
  • 210620Z AUTO 14005KT 2300 BR BKN003 OVC011 02/02 Q1007
  • 210550Z AUTO 13007KT 2300 BR OVC002 02/02 Q1006
  • 210520Z AUTO 13007KT 2500 BR OVC003 01/01 Q1006
  • 210450Z AUTO 13006KT 2900 BR OVC002 01/01 Q1006
  • 210420Z AUTO 13005KT 1800 BR OVC002 01/01 Q1005

TAF AMD TAF EGGW
Valid from the 21 at 07:00 until the 22 at 06:00 UTC


210725Z 2107/2206 14010KT 3000 BR OVC003
PROB30
TEMPO 2107/2108 0300 FG OVC001
BECMG 2108/2111 9999 NSW SCT016
PROB30
TEMPO 2108/2111 SHRA
BECMG 2116/2120 VRB04KT 8000
TEMPO 2120/2206 4000 BR
ATIS : +44 1582 395 204
No reported NOTAMs for that airfield.



MET'MAP, your aeronautical weather chart ! - Copyright ORBIFLY December 2007 - Disclaimer

ORBIFLY MET'MAP TEAM :

Programming & Development : Alexandra Zaïnal
Concept & Development : Baudouin d'Aumeries
Co-Development & Prog : Marc-Olivier Méhu
Technical & hardware support : Manuel Goepfert

Contact : metmap@orbifly.com




SOURCES & CREDITS :

   NOAA